sensor_id;sensor_type;location;lat;lon;timestamp;pressure;altitude;pressure_sealevel;temperature;humidity
43503;BME280;29098;48.184;16.298;2022-07-23T00:00:46;99231.03;;;24.40;64.24
43503;BME280;29098;48.184;16.298;2022-07-23T00:03:12;99235.34;;;24.46;64.05
43503;BME280;29098;48.184;16.298;2022-07-23T00:05:40;99225.97;;;24.33;64.86
43503;BME280;29098;48.184;16.298;2022-07-23T00:08:06;99223.25;;;24.39;64.12
43503;BME280;29098;48.184;16.298;2022-07-23T00:10:34;99221.75;;;24.17;64.79
43503;BME280;29098;48.184;16.298;2022-07-23T00:13:00;99239.44;;;24.33;64.29
43503;BME280;29098;48.184;16.298;2022-07-23T00:15:26;99218.47;;;24.25;64.25
43503;BME280;29098;48.184;16.298;2022-07-23T00:17:51;99229.75;;;24.32;63.78
43503;BME280;29098;48.184;16.298;2022-07-23T00:20:17;99229.16;;;24.41;63.56
43503;BME280;29098;48.184;16.298;2022-07-23T00:22:51;99237.53;;;24.39;63.36
43503;BME280;29098;48.184;16.298;2022-07-23T00:25:18;99243.03;;;24.13;64.37
43503;BME280;29098;48.184;16.298;2022-07-23T00:27:43;99224.72;;;24.10;64.38
43503;BME280;29098;48.184;16.298;2022-07-23T00:30:09;99241.66;;;24.16;64.61
43503;BME280;29098;48.184;16.298;2022-07-23T00:32:54;99239.44;;;24.28;63.44
43503;BME280;29098;48.184;16.298;2022-07-23T00:35:23;99247.53;;;24.33;63.87
43503;BME280;29098;48.184;16.298;2022-07-23T00:37:49;99260.78;;;24.19;64.44
43503;BME280;29098;48.184;16.298;2022-07-23T00:40:14;99251.88;;;24.19;63.94
43503;BME280;29098;48.184;16.298;2022-07-23T00:42:40;99229.81;;;24.17;63.33
43503;BME280;29098;48.184;16.298;2022-07-23T00:45:09;99265.59;;;24.28;63.53
43503;BME280;29098;48.184;16.298;2022-07-23T00:47:35;99253.50;;;24.20;64.04
43503;BME280;29098;48.184;16.298;2022-07-23T00:50:02;99257.28;;;24.14;64.59
43503;BME280;29098;48.184;16.298;2022-07-23T00:52:29;99255.94;;;24.16;63.49
43503;BME280;29098;48.184;16.298;2022-07-23T00:54:57;99255.69;;;24.07;64.12
43503;BME280;29098;48.184;16.298;2022-07-23T00:57:23;99256.22;;;24.10;64.02
43503;BME280;29098;48.184;16.298;2022-07-23T00:59:48;99262.69;;;24.08;64.30
43503;BME280;29098;48.184;16.298;2022-07-23T01:02:14;99242.47;;;24.01;64.21
43503;BME280;29098;48.184;16.298;2022-07-23T01:04:39;99247.59;;;24.02;64.49
43503;BME280;29098;48.184;16.298;2022-07-23T01:07:05;99238.44;;;24.03;63.96
43503;BME280;29098;48.184;16.298;2022-07-23T01:09:32;99242.25;;;23.92;64.38
43503;BME280;29098;48.184;16.298;2022-07-23T01:11:58;99238.50;;;23.72;65.66
43503;BME280;29098;48.184;16.298;2022-07-23T01:14:26;99232.31;;;23.72;65.06
43503;BME280;29098;48.184;16.298;2022-07-23T01:16:52;99244.16;;;23.76;64.85
43503;BME280;29098;48.184;16.298;2022-07-23T01:19:18;99246.00;;;23.96;63.85
43503;BME280;29098;48.184;16.298;2022-07-23T01:21:46;99266.44;;;23.97;63.93
43503;BME280;29098;48.184;16.298;2022-07-23T01:24:13;99250.03;;;23.93;63.11
43503;BME280;29098;48.184;16.298;2022-07-23T01:26:41;99278.81;;;24.19;62.81
43503;BME280;29098;48.184;16.298;2022-07-23T01:29:07;99289.63;;;23.93;63.33
43503;BME280;29098;48.184;16.298;2022-07-23T01:31:33;99308.47;;;23.88;63.59
43503;BME280;29098;48.184;16.298;2022-07-23T01:33:58;99298.25;;;23.85;63.58
43503;BME280;29098;48.184;16.298;2022-07-23T01:36:24;99288.00;;;23.92;62.92
43503;BME280;29098;48.184;16.298;2022-07-23T01:38:49;99267.78;;;24.10;61.98
43503;BME280;29098;48.184;16.298;2022-07-23T01:41:15;99281.53;;;24.03;62.34
43503;BME280;29098;48.184;16.298;2022-07-23T01:43:41;99267.78;;;24.05;62.21
43503;BME280;29098;48.184;16.298;2022-07-23T01:46:07;99279.59;;;24.30;61.74
43503;BME280;29098;48.184;16.298;2022-07-23T01:48:33;99264.19;;;24.46;61.45
43503;BME280;29098;48.184;16.298;2022-07-23T01:50:58;99264.44;;;24.44;61.25
43503;BME280;29098;48.184;16.298;2022-07-23T01:53:24;99248.66;;;24.17;62.17
43503;BME280;29098;48.184;16.298;2022-07-23T01:55:49;99239.50;;;24.18;61.88
43503;BME280;29098;48.184;16.298;2022-07-23T01:58:14;99233.56;;;24.21;62.19
43503;BME280;29098;48.184;16.298;2022-07-23T02:00:40;99241.31;;;24.38;61.91
43503;BME280;29098;48.184;16.298;2022-07-23T02:03:05;99230.78;;;24.42;61.93
43503;BME280;29098;48.184;16.298;2022-07-23T02:05:31;99227.25;;;24.52;61.98
43503;BME280;29098;48.184;16.298;2022-07-23T02:08:00;99193.03;;;24.47;61.93
43503;BME280;29098;48.184;16.298;2022-07-23T02:10:27;99182.19;;;24.57;61.66
43503;BME280;29098;48.184;16.298;2022-07-23T02:12:52;99176.25;;;24.60;61.71
43503;BME280;29098;48.184;16.298;2022-07-23T02:15:18;99156.34;;;24.56;61.46
43503;BME280;29098;48.184;16.298;2022-07-23T02:17:46;99143.38;;;24.58;61.18
43503;BME280;29098;48.184;16.298;2022-07-23T02:20:12;99156.75;;;24.79;60.70
43503;BME280;29098;48.184;16.298;2022-07-23T02:22:38;99170.22;;;24.74;60.90
43503;BME280;29098;48.184;16.298;2022-07-23T02:25:05;99175.34;;;24.81;60.97
43503;BME280;29098;48.184;16.298;2022-07-23T02:27:30;99152.19;;;24.74;60.61
43503;BME280;29098;48.184;16.298;2022-07-23T02:29:56;99175.28;;;24.86;60.60
43503;BME280;29098;48.184;16.298;2022-07-23T02:32:22;99172.91;;;24.79;60.75
43503;BME280;29098;48.184;16.298;2022-07-23T02:34:48;99171.81;;;24.85;60.73
43503;BME280;29098;48.184;16.298;2022-07-23T02:37:14;99190.09;;;24.88;61.55
43503;BME280;29098;48.184;16.298;2022-07-23T02:39:40;99168.53;;;24.88;60.94
43503;BME280;29098;48.184;16.298;2022-07-23T02:42:06;99172.84;;;24.89;61.07
43503;BME280;29098;48.184;16.298;2022-07-23T02:44:31;99158.75;;;24.98;60.29
43503;BME280;29098;48.184;16.298;2022-07-23T02:46:57;99168.38;;;25.09;59.93
43503;BME280;29098;48.184;16.298;2022-07-23T02:49:22;99163.25;;;25.08;60.19
43503;BME280;29098;48.184;16.298;2022-07-23T02:51:48;99157.00;;;25.12;60.82
43503;BME280;29098;48.184;16.298;2022-07-23T02:54:13;99146.84;;;25.04;60.91
43503;BME280;29098;48.184;16.298;2022-07-23T02:56:39;99137.28;;;24.87;60.98
43503;BME280;29098;48.184;16.298;2022-07-23T02:59:04;99162.78;;;25.00;60.51
43503;BME280;29098;48.184;16.298;2022-07-23T03:01:30;99163.59;;;25.01;60.12
43503;BME280;29098;48.184;16.298;2022-07-23T03:03:55;99149.53;;;25.04;59.74
43503;BME280;29098;48.184;16.298;2022-07-23T03:06:21;99169.94;;;25.15;59.71
43503;BME280;29098;48.184;16.298;2022-07-23T03:08:46;99177.84;;;25.07;60.32
43503;BME280;29098;48.184;16.298;2022-07-23T03:11:12;99166.81;;;25.03;60.53
43503;BME280;29098;48.184;16.298;2022-07-23T03:13:38;99159.97;;;24.81;61.42
43503;BME280;29098;48.184;16.298;2022-07-23T03:16:04;99175.84;;;24.88;61.37
43503;BME280;29098;48.184;16.298;2022-07-23T03:18:29;99164.69;;;25.00;59.60
43503;BME280;29098;48.184;16.298;2022-07-23T03:20:55;99164.63;;;25.05;59.63
43503;BME280;29098;48.184;16.298;2022-07-23T03:23:20;99167.28;;;25.10;59.29
43503;BME280;29098;48.184;16.298;2022-07-23T03:25:46;99172.56;;;25.21;58.95
43503;BME280;29098;48.184;16.298;2022-07-23T03:28:14;99175.88;;;25.12;58.82
43503;BME280;29098;48.184;16.298;2022-07-23T03:30:44;99186.41;;;25.14;59.22
43503;BME280;29098;48.184;16.298;2022-07-23T03:33:14;99184.25;;;25.11;58.93
43503;BME280;29098;48.184;16.298;2022-07-23T03:35:39;99176.50;;;25.34;58.10
43503;BME280;29098;48.184;16.298;2022-07-23T03:38:05;99184.28;;;25.40;57.87
43503;BME280;29098;48.184;16.298;2022-07-23T03:40:30;99198.31;;;25.37;58.45
43503;BME280;29098;48.184;16.298;2022-07-23T03:42:56;99197.34;;;25.28;58.05
43503;BME280;29098;48.184;16.298;2022-07-23T03:45:21;99182.25;;;25.27;58.28
43503;BME280;29098;48.184;16.298;2022-07-23T03:47:47;99209.94;;;25.38;59.10
43503;BME280;29098;48.184;16.298;2022-07-23T03:50:12;99211.22;;;25.11;59.49
43503;BME280;29098;48.184;16.298;2022-07-23T03:52:38;99217.34;;;25.22;59.72
43503;BME280;29098;48.184;16.298;2022-07-23T03:55:04;99221.13;;;25.21;60.44
43503;BME280;29098;48.184;16.298;2022-07-23T03:57:30;99206.28;;;24.88;60.93
43503;BME280;29098;48.184;16.298;2022-07-23T03:59:55;99225.66;;;24.90;61.58
43503;BME280;29098;48.184;16.298;2022-07-23T04:02:21;99224.66;;;24.81;61.93
43503;BME280;29098;48.184;16.298;2022-07-23T04:04:46;99234.31;;;24.87;62.25
43503;BME280;29098;48.184;16.298;2022-07-23T04:07:13;99237.63;;;24.79;62.54
43503;BME280;29098;48.184;16.298;2022-07-23T04:09:39;99220.34;;;24.80;62.32
43503;BME280;29098;48.184;16.298;2022-07-23T04:12:06;99230.22;;;24.95;61.23
43503;BME280;29098;48.184;16.298;2022-07-23T04:14:32;99230.81;;;24.87;61.45
43503;BME280;29098;48.184;16.298;2022-07-23T04:16:57;99237.59;;;24.84;62.30
43503;BME280;29098;48.184;16.298;2022-07-23T04:19:23;99257.00;;;24.81;62.79
43503;BME280;29098;48.184;16.298;2022-07-23T04:21:48;99253.22;;;24.82;63.38
43503;BME280;29098;48.184;16.298;2022-07-23T04:24:14;99265.88;;;24.87;63.75
43503;BME280;29098;48.184;16.298;2022-07-23T04:26:39;99258.06;;;24.85;64.36
43503;BME280;29098;48.184;16.298;2022-07-23T04:29:05;99244.63;;;24.80;64.14
43503;BME280;29098;48.184;16.298;2022-07-23T04:31:30;99254.88;;;24.68;65.23
43503;BME280;29098;48.184;16.298;2022-07-23T04:33:58;99252.94;;;24.79;64.86
43503;BME280;29098;48.184;16.298;2022-07-23T04:36:23;99225.00;;;24.64;65.48
43503;BME280;29098;48.184;16.298;2022-07-23T04:38:51;99258.38;;;24.73;65.73
43503;BME280;29098;48.184;16.298;2022-07-23T04:41:16;99248.69;;;24.72;64.50
43503;BME280;29098;48.184;16.298;2022-07-23T04:43:42;99260.44;;;24.97;61.44
43503;BME280;29098;48.184;16.298;2022-07-23T04:46:07;99242.63;;;24.96;61.56
43503;BME280;29098;48.184;16.298;2022-07-23T04:48:33;99264.13;;;25.07;60.84
43503;BME280;29098;48.184;16.298;2022-07-23T04:50:59;99257.88;;;25.11;60.37
43503;BME280;29098;48.184;16.298;2022-07-23T04:53:24;99256.28;;;25.10;60.52
43503;BME280;29098;48.184;16.298;2022-07-23T04:55:49;99240.63;;;25.12;59.27
43503;BME280;29098;48.184;16.298;2022-07-23T04:58:15;99235.59;;;24.95;58.95
43503;BME280;29098;48.184;16.298;2022-07-23T05:00:40;99242.56;;;25.07;58.75
43503;BME280;29098;48.184;16.298;2022-07-23T05:03:06;99250.38;;;25.08;58.28
43503;BME280;29098;48.184;16.298;2022-07-23T05:05:31;99244.41;;;25.11;60.17
43503;BME280;29098;48.184;16.298;2022-07-23T05:07:57;99248.09;;;25.21;57.40
43503;BME280;29098;48.184;16.298;2022-07-23T05:10:22;99252.97;;;25.19;57.62
43503;BME280;29098;48.184;16.298;2022-07-23T05:12:47;99248.72;;;25.12;56.61
43503;BME280;29098;48.184;16.298;2022-07-23T05:15:13;99256.13;;;25.31;56.19
43503;BME280;29098;48.184;16.298;2022-07-23T05:17:40;99250.78;;;25.26;56.23
43503;BME280;29098;48.184;16.298;2022-07-23T05:20:06;99246.41;;;25.30;55.98
43503;BME280;29098;48.184;16.298;2022-07-23T05:22:32;99237.72;;;25.38;55.56
43503;BME280;29098;48.184;16.298;2022-07-23T05:24:58;99255.97;;;25.52;55.32
43503;BME280;29098;48.184;16.298;2022-07-23T05:27:23;99252.88;;;25.64;54.87
43503;BME280;29098;48.184;16.298;2022-07-23T05:29:49;99262.56;;;25.70;55.50
43503;BME280;29098;48.184;16.298;2022-07-23T05:32:14;99251.94;;;25.79;55.40
43503;BME280;29098;48.184;16.298;2022-07-23T05:34:40;99272.41;;;25.85;55.47
43503;BME280;29098;48.184;16.298;2022-07-23T05:37:05;99258.97;;;25.80;55.78
43503;BME280;29098;48.184;16.298;2022-07-23T05:39:31;99271.84;;;26.12;54.98
43503;BME280;29098;48.184;16.298;2022-07-23T05:41:57;99259.44;;;26.11;55.45
43503;BME280;29098;48.184;16.298;2022-07-23T05:44:22;99258.53;;;26.21;55.22
43503;BME280;29098;48.184;16.298;2022-07-23T05:46:48;99265.31;;;26.19;55.13
43503;BME280;29098;48.184;16.298;2022-07-23T05:49:13;99274.47;;;26.18;55.25
43503;BME280;29098;48.184;16.298;2022-07-23T05:51:39;99264.03;;;26.11;55.41
43503;BME280;29098;48.184;16.298;2022-07-23T05:54:04;99256.56;;;26.03;55.69
43503;BME280;29098;48.184;16.298;2022-07-23T05:56:30;99254.53;;;26.13;55.17
43503;BME280;29098;48.184;16.298;2022-07-23T05:58:55;99273.53;;;26.33;55.24
43503;BME280;29098;48.184;16.298;2022-07-23T06:01:20;99284.81;;;26.40;54.40
43503;BME280;29098;48.184;16.298;2022-07-23T06:03:46;99286.91;;;26.43;54.65
43503;BME280;29098;48.184;16.298;2022-07-23T06:06:11;99273.19;;;26.59;54.77
43503;BME280;29098;48.184;16.298;2022-07-23T06:08:37;99278.56;;;26.64;54.27
43503;BME280;29098;48.184;16.298;2022-07-23T06:11:02;99276.22;;;26.57;53.74
43503;BME280;29098;48.184;16.298;2022-07-23T06:13:28;99293.63;;;26.70;54.07
43503;BME280;29098;48.184;16.298;2022-07-23T06:15:53;99282.13;;;26.59;54.54
43503;BME280;29098;48.184;16.298;2022-07-23T06:18:18;99272.69;;;26.57;54.69
43503;BME280;29098;48.184;16.298;2022-07-23T06:20:44;99276.50;;;26.56;54.80
43503;BME280;29098;48.184;16.298;2022-07-23T06:23:09;99295.44;;;26.75;54.47
43503;BME280;29098;48.184;16.298;2022-07-23T06:25:38;99286.28;;;26.71;54.26
43503;BME280;29098;48.184;16.298;2022-07-23T06:28:04;99293.97;;;26.83;53.62
43503;BME280;29098;48.184;16.298;2022-07-23T06:30:30;99298.88;;;26.80;52.55
43503;BME280;29098;48.184;16.298;2022-07-23T06:32:56;99299.16;;;26.79;52.16
43503;BME280;29098;48.184;16.298;2022-07-23T06:35:21;99292.66;;;26.80;51.75
43503;BME280;29098;48.184;16.298;2022-07-23T06:37:47;99310.50;;;26.81;51.75
43503;BME280;29098;48.184;16.298;2022-07-23T06:40:13;99299.09;;;26.84;51.33
43503;BME280;29098;48.184;16.298;2022-07-23T06:42:38;99304.31;;;27.00;50.89
43503;BME280;29098;48.184;16.298;2022-07-23T06:45:07;99294.81;;;27.02;50.84
43503;BME280;29098;48.184;16.298;2022-07-23T06:47:33;99297.97;;;27.10;51.16
43503;BME280;29098;48.184;16.298;2022-07-23T06:49:58;99299.75;;;27.33;50.32
43503;BME280;29098;48.184;16.298;2022-07-23T06:52:24;99296.34;;;27.28;51.05
43503;BME280;29098;48.184;16.298;2022-07-23T06:54:51;99298.88;;;27.38;49.83
43503;BME280;29098;48.184;16.298;2022-07-23T06:57:16;99298.31;;;27.55;49.32
43503;BME280;29098;48.184;16.298;2022-07-23T06:59:42;99285.47;;;27.47;48.22
43503;BME280;29098;48.184;16.298;2022-07-23T07:02:08;99295.53;;;27.60;47.40
43503;BME280;29098;48.184;16.298;2022-07-23T07:04:33;99282.13;;;27.69;47.15
43503;BME280;29098;48.184;16.298;2022-07-23T07:06:59;99297.97;;;27.76;47.59
43503;BME280;29098;48.184;16.298;2022-07-23T07:09:24;99296.22;;;27.99;45.35
43503;BME280;29098;48.184;16.298;2022-07-23T07:11:50;99291.50;;;28.05;44.73
43503;BME280;29098;48.184;16.298;2022-07-23T07:14:15;99292.81;;;28.08;44.54
43503;BME280;29098;48.184;16.298;2022-07-23T07:16:41;99292.00;;;28.07;44.69
43503;BME280;29098;48.184;16.298;2022-07-23T07:19:06;99280.56;;;28.10;44.24
43503;BME280;29098;48.184;16.298;2022-07-23T07:21:32;99283.41;;;28.19;44.37
43503;BME280;29098;48.184;16.298;2022-07-23T07:23:57;99274.88;;;28.26;44.49
43503;BME280;29098;48.184;16.298;2022-07-23T07:26:23;99296.03;;;28.52;44.58
43503;BME280;29098;48.184;16.298;2022-07-23T07:28:48;99310.66;;;28.65;44.09
43503;BME280;29098;48.184;16.298;2022-07-23T07:31:14;99302.63;;;28.74;43.92
43503;BME280;29098;48.184;16.298;2022-07-23T07:33:39;99300.94;;;28.78;43.69
43503;BME280;29098;48.184;16.298;2022-07-23T07:36:05;99301.03;;;28.73;42.70
43503;BME280;29098;48.184;16.298;2022-07-23T07:38:30;99310.47;;;28.61;42.47
43503;BME280;29098;48.184;16.298;2022-07-23T07:40:56;99294.50;;;28.74;42.52
43503;BME280;29098;48.184;16.298;2022-07-23T07:43:21;99296.28;;;28.92;42.64
43503;BME280;29098;48.184;16.298;2022-07-23T07:45:47;99286.31;;;29.02;42.01
43503;BME280;29098;48.184;16.298;2022-07-23T07:48:12;99303.72;;;29.23;41.28
43503;BME280;29098;48.184;16.298;2022-07-23T07:50:38;99286.44;;;29.42;41.42
43503;BME280;29098;48.184;16.298;2022-07-23T07:53:04;99301.78;;;29.70;40.81
43503;BME280;29098;48.184;16.298;2022-07-23T07:55:30;99314.53;;;29.60;40.37
43503;BME280;29098;48.184;16.298;2022-07-23T07:57:56;99305.88;;;29.90;40.24
43503;BME280;29098;48.184;16.298;2022-07-23T08:00:22;99307.00;;;29.89;39.86
43503;BME280;29098;48.184;16.298;2022-07-23T08:02:49;99306.06;;;29.62;40.57
43503;BME280;29098;48.184;16.298;2022-07-23T08:05:22;99309.25;;;29.18;40.51
43503;BME280;29098;48.184;16.298;2022-07-23T08:07:48;99304.19;;;29.03;41.25
43503;BME280;29098;48.184;16.298;2022-07-23T08:10:14;99299.13;;;28.87;42.23
43503;BME280;29098;48.184;16.298;2022-07-23T08:12:41;99288.84;;;28.98;40.83
43503;BME280;29098;48.184;16.298;2022-07-23T08:15:08;99296.91;;;29.12;41.31
43503;BME280;29098;48.184;16.298;2022-07-23T08:17:33;99302.72;;;29.42;40.52
43503;BME280;29098;48.184;16.298;2022-07-23T08:19:59;99316.22;;;29.47;40.65
43503;BME280;29098;48.184;16.298;2022-07-23T08:23:04;99300.38;;;29.26;41.25
43503;BME280;29098;48.184;16.298;2022-07-23T08:25:33;99294.88;;;29.40;40.77
43503;BME280;29098;48.184;16.298;2022-07-23T08:28:00;99288.78;;;29.12;40.78
43503;BME280;29098;48.184;16.298;2022-07-23T08:30:26;99303.41;;;29.25;41.12
43503;BME280;29098;48.184;16.298;2022-07-23T08:33:06;99293.38;;;29.48;40.34
43503;BME280;29098;48.184;16.298;2022-07-23T08:35:48;99305.69;;;29.77;40.77
43503;BME280;29098;48.184;16.298;2022-07-23T08:38:23;99286.44;;;29.42;39.97
43503;BME280;29098;48.184;16.298;2022-07-23T08:40:52;99294.22;;;29.58;40.45
43503;BME280;29098;48.184;16.298;2022-07-23T08:43:24;99288.47;;;29.59;40.21
43503;BME280;29098;48.184;16.298;2022-07-23T08:45:52;99300.41;;;29.49;40.19
43503;BME280;29098;48.184;16.298;2022-07-23T08:48:23;99290.09;;;29.60;40.23
43503;BME280;29098;48.184;16.298;2022-07-23T08:50:54;99274.69;;;29.78;40.02
43503;BME280;29098;48.184;16.298;2022-07-23T08:53:21;99289.09;;;29.88;39.27
43503;BME280;29098;48.184;16.298;2022-07-23T08:55:52;99277.75;;;29.86;39.64
43503;BME280;29098;48.184;16.298;2022-07-23T08:58:19;99281.72;;;29.88;40.26
43503;BME280;29098;48.184;16.298;2022-07-23T09:00:45;99280.13;;;29.87;39.53
43503;BME280;29098;48.184;16.298;2022-07-23T09:03:19;99270.72;;;29.85;40.20
43503;BME280;29098;48.184;16.298;2022-07-23T09:05:45;99281.44;;;29.90;38.87
43503;BME280;29098;48.184;16.298;2022-07-23T09:08:21;99273.50;;;30.02;39.56
43503;BME280;29098;48.184;16.298;2022-07-23T09:10:57;99278.06;;;30.16;38.36
43503;BME280;29098;48.184;16.298;2022-07-23T09:15:50;99289.19;;;30.64;37.62
43503;BME280;29098;48.184;16.298;2022-07-23T09:18:16;99278.78;;;30.66;36.59
43503;BME280;29098;48.184;16.298;2022-07-23T09:20:42;99278.94;;;30.60;36.67
43503;BME280;29098;48.184;16.298;2022-07-23T09:23:08;99282.44;;;30.52;37.30
43503;BME280;29098;48.184;16.298;2022-07-23T09:25:34;99271.53;;;30.34;37.29
43503;BME280;29098;48.184;16.298;2022-07-23T09:27:59;99272.03;;;30.45;37.14
43503;BME280;29098;48.184;16.298;2022-07-23T09:30:31;99267.72;;;30.62;36.95
43503;BME280;29098;48.184;16.298;2022-07-23T09:33:08;99270.16;;;30.72;37.69
43503;BME280;29098;48.184;16.298;2022-07-23T09:35:48;99276.72;;;30.62;37.46
43503;BME280;29098;48.184;16.298;2022-07-23T09:38:15;99257.22;;;30.78;37.04
43503;BME280;29098;48.184;16.298;2022-07-23T09:40:41;99265.84;;;30.98;35.86
43503;BME280;29098;48.184;16.298;2022-07-23T09:43:06;99262.97;;;30.94;36.60
43503;BME280;29098;48.184;16.298;2022-07-23T09:45:32;99253.69;;;30.78;36.50
43503;BME280;29098;48.184;16.298;2022-07-23T09:48:16;99268.25;;;30.91;36.33
43503;BME280;29098;48.184;16.298;2022-07-23T09:50:46;99257.22;;;30.96;36.45
43503;BME280;29098;48.184;16.298;2022-07-23T09:53:25;99271.75;;;31.00;36.60
43503;BME280;29098;48.184;16.298;2022-07-23T09:55:52;99273.38;;;31.01;36.29
43503;BME280;29098;48.184;16.298;2022-07-23T09:58:22;99265.06;;;30.88;36.95
43503;BME280;29098;48.184;16.298;2022-07-23T10:00:48;99266.63;;;31.07;37.09
43503;BME280;29098;48.184;16.298;2022-07-23T10:03:15;99257.19;;;31.22;36.74
43503;BME280;29098;48.184;16.298;2022-07-23T10:05:43;99264.41;;;31.09;36.35
43503;BME280;29098;48.184;16.298;2022-07-23T10:08:12;99257.31;;;31.43;37.35
43503;BME280;29098;48.184;16.298;2022-07-23T10:10:41;99255.97;;;31.67;36.79
43503;BME280;29098;48.184;16.298;2022-07-23T10:13:06;99254.97;;;31.72;37.02
43503;BME280;29098;48.184;16.298;2022-07-23T10:15:51;99243.75;;;31.82;36.28
43503;BME280;29098;48.184;16.298;2022-07-23T10:18:16;99248.81;;;32.02;35.98
43503;BME280;29098;48.184;16.298;2022-07-23T10:20:47;99242.50;;;32.10;35.65
43503;BME280;29098;48.184;16.298;2022-07-23T10:23:28;99243.28;;;32.41;35.67
43503;BME280;29098;48.184;16.298;2022-07-23T10:26:19;99241.31;;;32.20;35.44
43503;BME280;29098;48.184;16.298;2022-07-23T10:29:02;99253.56;;;32.65;35.07
43503;BME280;29098;48.184;16.298;2022-07-23T10:34:46;99247.09;;;32.48;34.38
43503;BME280;29098;48.184;16.298;2022-07-23T10:37:42;99238.84;;;32.27;34.70
43503;BME280;29098;48.184;16.298;2022-07-23T10:40:13;99255.59;;;32.68;35.01
43503;BME280;29098;48.184;16.298;2022-07-23T10:42:43;99262.66;;;32.69;34.70
43503;BME280;29098;48.184;16.298;2022-07-23T10:45:30;99239.63;;;33.00;32.82
43503;BME280;29098;48.184;16.298;2022-07-23T10:48:24;99238.53;;;33.14;32.76
43503;BME280;29098;48.184;16.298;2022-07-23T10:51:09;99238.31;;;33.19;32.85
43503;BME280;29098;48.184;16.298;2022-07-23T10:59:05;99244.16;;;33.30;32.55
43503;BME280;29098;48.184;16.298;2022-07-23T11:01:32;99240.03;;;33.70;31.37
43503;BME280;29098;48.184;16.298;2022-07-23T11:03:59;99239.56;;;33.68;31.94
43503;BME280;29098;48.184;16.298;2022-07-23T11:20:22;99222.50;;;33.25;33.29
43503;BME280;29098;48.184;16.298;2022-07-23T11:22:54;99222.09;;;33.47;33.37
43503;BME280;29098;48.184;16.298;2022-07-23T11:27:56;99203.91;;;33.64;33.10
43503;BME280;29098;48.184;16.298;2022-07-23T11:35:43;99206.47;;;34.48;32.05
43503;BME280;29098;48.184;16.298;2022-07-23T11:38:20;99194.50;;;34.40;31.62
43503;BME280;29098;48.184;16.298;2022-07-23T11:40:50;99204.94;;;34.22;32.37
43503;BME280;29098;48.184;16.298;2022-07-23T11:43:15;99184.13;;;34.05;32.33
43503;BME280;29098;48.184;16.298;2022-07-23T11:45:43;99196.34;;;34.77;31.67
43503;BME280;29098;48.184;16.298;2022-07-23T11:48:16;99189.88;;;34.15;31.82
43503;BME280;29098;48.184;16.298;2022-07-23T11:50:42;99197.16;;;34.77;31.91
43503;BME280;29098;48.184;16.298;2022-07-23T11:53:07;99195.31;;;34.97;31.48
43503;BME280;29098;48.184;16.298;2022-07-23T11:55:33;99193.59;;;34.77;31.54
43503;BME280;29098;48.184;16.298;2022-07-23T11:57:59;99194.84;;;35.08;31.74
43503;BME280;29098;48.184;16.298;2022-07-23T12:00:27;99192.47;;;35.06;31.34
43503;BME280;29098;48.184;16.298;2022-07-23T12:02:56;99197.56;;;35.08;31.67
43503;BME280;29098;48.184;16.298;2022-07-23T12:05:34;99191.06;;;34.84;31.24
43503;BME280;29098;48.184;16.298;2022-07-23T12:08:03;99200.44;;;34.42;31.78
43503;BME280;29098;48.184;16.298;2022-07-23T12:10:36;99187.53;;;33.89;32.20
43503;BME280;29098;48.184;16.298;2022-07-23T12:13:05;99199.00;;;33.32;33.13
43503;BME280;29098;48.184;16.298;2022-07-23T12:15:40;99207.84;;;33.29;33.02
43503;BME280;29098;48.184;16.298;2022-07-23T12:18:09;99197.31;;;32.94;33.76
43503;BME280;29098;48.184;16.298;2022-07-23T12:20:41;99195.31;;;32.82;33.86
43503;BME280;29098;48.184;16.298;2022-07-23T12:23:08;99191.66;;;32.57;34.02
43503;BME280;29098;48.184;16.298;2022-07-23T12:25:37;99199.78;;;32.44;34.31
43503;BME280;29098;48.184;16.298;2022-07-23T12:30:41;99182.97;;;32.33;34.32
43503;BME280;29098;48.184;16.298;2022-07-23T12:33:10;99179.97;;;32.05;34.75
43503;BME280;29098;48.184;16.298;2022-07-23T12:35:41;99178.97;;;31.88;34.99
43503;BME280;29098;48.184;16.298;2022-07-23T12:38:12;99202.78;;;31.61;34.98
43503;BME280;29098;48.184;16.298;2022-07-23T12:40:51;99196.69;;;31.64;34.68
43503;BME280;29098;48.184;16.298;2022-07-23T12:43:27;99185.28;;;31.32;35.56
43503;BME280;29098;48.184;16.298;2022-07-23T12:51:16;99205.34;;;31.01;34.86
43503;BME280;29098;48.184;16.298;2022-07-23T12:53:46;99206.44;;;31.17;34.55
43503;BME280;29098;48.184;16.298;2022-07-23T12:56:21;99199.09;;;31.00;33.90
43503;BME280;29098;48.184;16.298;2022-07-23T12:58:49;99212.03;;;31.21;33.10
43503;BME280;29098;48.184;16.298;2022-07-23T13:04:00;99221.16;;;31.34;31.82
43503;BME280;29098;48.184;16.298;2022-07-23T13:06:30;99236.28;;;31.62;31.37
43503;BME280;29098;48.184;16.298;2022-07-23T13:08:56;99231.63;;;31.62;30.33
43503;BME280;29098;48.184;16.298;2022-07-23T13:11:21;99223.63;;;31.66;30.19
43503;BME280;29098;48.184;16.298;2022-07-23T13:13:47;99227.59;;;32.07;29.64
43503;BME280;29098;48.184;16.298;2022-07-23T13:16:12;99217.53;;;31.99;29.65
43503;BME280;29098;48.184;16.298;2022-07-23T13:18:38;99253.91;;;32.03;29.69
43503;BME280;29098;48.184;16.298;2022-07-23T13:21:03;99254.88;;;32.29;29.99
43503;BME280;29098;48.184;16.298;2022-07-23T13:23:29;99250.72;;;32.01;29.94
43503;BME280;29098;48.184;16.298;2022-07-23T13:25:55;99251.25;;;31.94;30.48
43503;BME280;29098;48.184;16.298;2022-07-23T13:28:22;99242.25;;;31.55;30.41
43503;BME280;29098;48.184;16.298;2022-07-23T13:30:50;99231.50;;;31.59;30.57
43503;BME280;29098;48.184;16.298;2022-07-23T13:33:17;99257.84;;;31.28;31.02
43503;BME280;29098;48.184;16.298;2022-07-23T13:35:42;99226.59;;;31.16;31.24